Time;durP1;ratioP1;P1;durP2;ratioP2;P2;SDS_P1;SDS_P2;PMS_P1;PMS_P2;Temp;Humidity;BMP_temperature;BMP_pressure;BME280_temperature;BME280_humidity;BME280_pressure;Samples;Min_cycle;Max_cycle;Signal;HPM_P1;HPM_P2
2021/10/10 00:01:59;;;;;;;25.53;23.43;;;6.40;99.90;;;;;;4991260;28;20469;-75
2021/10/10 00:04:26;;;;;;;24.73;22.67;;;6.40;99.90;;;;;;4991248;28;20439;-77
2021/10/10 00:06:54;;;;;;;27.03;24.43;;;6.40;99.90;;;;;;4991097;28;20476;-78
2021/10/10 00:09:21;;;;;;;25.90;23.80;;;6.40;99.90;;;;;;4991526;28;20501;-77
2021/10/10 00:11:48;;;;;;;26.60;24.20;;;6.30;99.90;;;;;;4991350;28;20446;-77
2021/10/10 00:14:14;;;;;;;27.60;24.80;;;6.30;99.90;;;;;;4991055;28;20485;-78
2021/10/10 00:16:41;;;;;;;26.80;24.70;;;6.30;99.90;;;;;;4990965;28;20454;-78
2021/10/10 00:19:08;;;;;;;27.87;25.27;;;6.40;99.90;;;;;;4991442;28;20840;-77
2021/10/10 00:21:34;;;;;;;27.67;25.10;;;6.40;99.90;;;;;;4991326;28;20478;-77
2021/10/10 00:24:02;;;;;;;28.40;25.97;;;6.40;99.90;;;;;;4991047;28;20541;-77
2021/10/10 00:26:29;;;;;;;28.30;25.63;;;6.30;99.90;;;;;;4991283;28;20462;-77
2021/10/10 00:28:56;;;;;;;29.43;26.80;;;6.40;99.90;;;;;;4990798;28;20487;-77
2021/10/10 00:31:22;;;;;;;27.40;25.00;;;6.30;99.90;;;;;;4991222;28;20460;-78
2021/10/10 00:33:49;;;;;;;29.33;26.60;;;6.20;99.90;;;;;;4991187;28;20836;-78
2021/10/10 00:36:16;;;;;;;28.53;25.33;;;6.20;99.90;;;;;;4991062;28;20465;-78
2021/10/10 00:38:43;;;;;;;29.77;27.13;;;6.20;99.90;;;;;;4990571;28;20451;-77
2021/10/10 00:41:11;;;;;;;31.90;28.80;;;6.20;99.90;;;;;;4990939;28;20450;-77
2021/10/10 00:43:37;;;;;;;29.07;26.70;;;6.20;99.90;;;;;;4990968;28;20458;-77
2021/10/10 00:46:04;;;;;;;27.60;25.20;;;6.20;99.90;;;;;;4991008;28;20454;-78
2021/10/10 00:48:31;;;;;;;30.50;27.73;;;6.20;99.90;;;;;;4990754;28;20652;-77
2021/10/10 00:50:57;;;;;;;27.83;25.77;;;6.20;99.90;;;;;;4990882;28;20462;-78
2021/10/10 00:53:25;;;;;;;28.30;25.93;;;6.10;99.90;;;;;;4992384;28;20852;-77
2021/10/10 00:55:54;;;;;;;31.90;29.00;;;6.10;99.90;;;;;;4994423;28;20585;-77
2021/10/10 00:58:24;;;;;;;29.03;26.50;;;6.10;99.90;;;;;;4994008;28;20451;-79
2021/10/10 01:00:52;;;;;;;29.50;26.90;;;6.20;99.90;;;;;;4994876;28;20457;-80
2021/10/10 01:03:19;;;;;;;30.50;27.70;;;6.10;99.90;;;;;;4994359;28;20449;-81
2021/10/10 01:05:46;;;;;;;31.93;29.20;;;6.00;99.90;;;;;;4994067;28;20451;-81
2021/10/10 01:08:13;;;;;;;31.77;28.90;;;6.00;99.90;;;;;;4994265;28;20462;-80
2021/10/10 01:10:40;;;;;;;31.40;28.47;;;5.90;99.90;;;;;;4994116;28;20462;-81
2021/10/10 01:13:08;;;;;;;30.27;27.77;;;5.80;99.90;;;;;;4994157;28;20512;-81
2021/10/10 01:15:36;;;;;;;29.93;27.50;;;5.80;99.90;;;;;;4993554;28;20540;-77
2021/10/10 01:18:03;;;;;;;30.30;27.70;;;5.90;99.90;;;;;;4993865;28;20454;-77
2021/10/10 01:20:38;;;;;;;31.43;28.50;;;5.80;99.90;;;;;;4993749;28;20853;-78
2021/10/10 01:23:04;;;;;;;30.10;27.40;;;5.80;99.90;;;;;;4993949;28;20461;-77
2021/10/10 01:25:31;;;;;;;30.70;28.00;;;5.80;99.90;;;;;;4994115;28;20457;-82
2021/10/10 01:27:58;;;;;;;30.73;28.13;;;5.70;99.90;;;;;;4993417;28;20462;-83
2021/10/10 01:30:25;;;;;;;31.07;28.20;;;5.70;99.90;;;;;;4993755;28;20458;-82
2021/10/10 01:32:55;;;;;;;31.70;29.10;;;5.70;99.90;;;;;;4993992;28;20454;-80
2021/10/10 01:35:22;;;;;;;32.37;29.17;;;5.60;99.90;;;;;;4994446;28;20486;-86
2021/10/10 01:37:50;;;;;;;32.97;30.00;;;5.60;99.90;;;;;;4994131;28;20826;-83
2021/10/10 01:40:17;;;;;;;31.73;28.90;;;5.60;99.90;;;;;;4993625;28;20976;-81
2021/10/10 01:42:44;;;;;;;33.10;30.43;;;5.60;99.90;;;;;;4993389;28;20474;-82
2021/10/10 01:45:14;;;;;;;32.47;29.50;;;5.50;99.90;;;;;;4993274;28;20459;-82
2021/10/10 01:47:41;;;;;;;31.83;29.10;;;5.50;99.90;;;;;;4993526;28;20458;-82
2021/10/10 01:50:09;;;;;;;31.27;28.57;;;5.50;99.90;;;;;;4993509;28;20815;-82
2021/10/10 01:52:37;;;;;;;33.37;30.47;;;5.50;99.90;;;;;;4993589;28;20450;-82
2021/10/10 01:55:05;;;;;;;33.20;30.33;;;5.50;99.90;;;;;;4993249;28;20493;-82
2021/10/10 01:57:32;;;;;;;31.10;28.40;;;5.40;99.90;;;;;;4993342;28;20534;-81
2021/10/10 01:59:59;;;;;;;31.80;28.90;;;5.40;99.90;;;;;;4993267;28;20487;-82
2021/10/10 02:02:26;;;;;;;31.23;28.40;;;5.30;99.90;;;;;;4993149;28;20452;-83
2021/10/10 02:04:52;;;;;;;31.70;29.00;;;5.30;99.90;;;;;;4993050;28;20461;-82
2021/10/10 02:07:19;;;;;;;33.77;31.00;;;5.40;99.90;;;;;;4993725;28;20826;-82
2021/10/10 02:09:46;;;;;;;35.93;32.43;;;5.40;99.90;;;;;;4993222;28;20966;-82
2021/10/10 02:12:14;;;;;;;35.00;31.90;;;5.30;99.90;;;;;;4993078;28;20456;-82
2021/10/10 02:14:41;;;;;;;34.20;30.70;;;5.30;99.90;;;;;;4992481;28;20493;-82
2021/10/10 02:17:08;;;;;;;37.03;31.40;;;5.30;99.90;;;;;;4993204;28;20469;-82
2021/10/10 02:19:35;;;;;;;34.00;31.00;;;5.30;99.90;;;;;;4993002;28;20855;-82
2021/10/10 02:22:01;;;;;;;34.03;31.23;;;5.30;99.90;;;;;;4992900;28;20465;-81
2021/10/10 02:24:28;;;;;;;33.23;30.30;;;5.40;99.90;;;;;;4992320;28;20478;-81
2021/10/10 02:26:55;;;;;;;34.33;31.00;;;5.40;99.90;;;;;;4992440;28;20468;-77
2021/10/10 02:29:23;;;;;;;33.77;30.97;;;5.40;99.90;;;;;;4992736;28;20456;-79
2021/10/10 02:31:49;;;;;;;32.63;30.03;;;5.40;99.90;;;;;;4992839;28;20465;-79
2021/10/10 02:34:18;;;;;;;33.13;30.53;;;5.30;99.90;;;;;;4992311;28;20464;-79
2021/10/10 02:36:46;;;;;;;32.33;29.63;;;5.10;99.90;;;;;;4992643;28;20463;-78
2021/10/10 02:39:13;;;;;;;34.47;31.47;;;5.10;99.90;;;;;;4992517;28;20455;-77
2021/10/10 02:41:40;;;;;;;35.83;32.77;;;5.10;99.90;;;;;;4992342;28;20509;-78
2021/10/10 02:44:07;;;;;;;34.03;31.13;;;5.10;99.90;;;;;;4992538;28;20472;-78
2021/10/10 02:46:35;;;;;;;34.67;31.87;;;5.10;99.90;;;;;;4993016;28;20449;-77
2021/10/10 02:49:02;;;;;;;34.03;31.33;;;5.10;99.90;;;;;;4992052;28;20512;-77
2021/10/10 02:51:30;;;;;;;37.70;34.00;;;5.10;99.90;;;;;;4992546;28;20462;-77
2021/10/10 02:53:56;;;;;;;35.50;32.50;;;5.20;99.90;;;;;;4992575;28;21186;-77
2021/10/10 02:56:23;;;;;;;33.67;30.87;;;5.10;99.90;;;;;;4992248;28;20482;-77
2021/10/10 02:58:50;;;;;;;34.20;31.00;;;5.20;99.90;;;;;;4992244;28;20509;-77
2021/10/10 03:01:17;;;;;;;33.13;30.40;;;5.20;99.90;;;;;;4992128;28;20950;-77
2021/10/10 03:03:45;;;;;;;33.20;30.60;;;5.20;99.90;;;;;;4992212;28;20454;-77
2021/10/10 03:06:12;;;;;;;34.63;31.70;;;5.30;99.90;;;;;;4992092;28;20505;-79
2021/10/10 03:08:39;;;;;;;34.90;31.90;;;5.30;99.90;;;;;;4992139;28;20814;-78
2021/10/10 03:11:06;;;;;;;34.90;31.97;;;5.40;99.90;;;;;;4992311;28;20454;-80
2021/10/10 03:13:33;;;;;;;33.47;30.60;;;5.40;99.90;;;;;;4993148;28;20475;-79
2021/10/10 03:16:00;;;;;;;33.57;30.47;;;5.40;99.90;;;;;;4993557;28;20502;-77
2021/10/10 03:18:27;;;;;;;33.43;30.83;;;5.40;99.90;;;;;;4999735;28;20453;-80
2021/10/10 03:20:55;;;;;;;34.33;31.33;;;5.40;99.90;;;;;;4996429;28;20623;-79
2021/10/10 03:23:23;;;;;;;34.00;31.10;;;5.30;99.90;;;;;;4991506;28;20485;-79
2021/10/10 03:25:50;;;;;;;34.90;31.90;;;5.30;99.90;;;;;;4991702;28;20450;-78
2021/10/10 03:28:17;;;;;;;35.83;32.50;;;5.30;99.90;;;;;;4991645;28;20455;-79
2021/10/10 03:30:44;;;;;;;34.90;32.10;;;5.20;99.90;;;;;;4991701;28;20458;-78
2021/10/10 03:33:10;;;;;;;34.17;31.20;;;5.20;99.90;;;;;;4991106;28;20956;-79
2021/10/10 03:35:37;;;;;;;35.57;32.60;;;5.30;99.90;;;;;;4991222;28;20493;-79
2021/10/10 03:38:05;;;;;;;33.87;30.87;;;5.20;99.90;;;;;;4991461;28;20458;-79
2021/10/10 03:40:32;;;;;;;34.27;31.37;;;5.20;99.90;;;;;;4992017;28;20458;-77
2021/10/10 03:42:59;;;;;;;35.60;32.63;;;5.20;99.90;;;;;;4991532;28;20456;-77
2021/10/10 03:45:25;;;;;;;35.00;32.17;;;5.20;99.90;;;;;;4991246;28;20450;-78
2021/10/10 03:47:52;;;;;;;36.03;33.13;;;5.20;99.90;;;;;;4991763;28;20457;-81
2021/10/10 03:50:19;;;;;;;35.40;32.40;;;5.10;99.90;;;;;;4991596;28;20452;-81
2021/10/10 03:52:45;;;;;;;34.33;31.63;;;5.10;99.90;;;;;;4991367;28;20460;-81
2021/10/10 03:57:58;;;;;;;35.13;32.17;;;5.10;99.90;;;;;;4991174;28;20450;-81
2021/10/10 04:00:26;;;;;;;35.17;32.03;;;5.10;99.90;;;;;;4991447;28;20826;-79
2021/10/10 04:02:53;;;;;;;33.80;31.20;;;5.00;99.90;;;;;;4991437;28;21280;-79
2021/10/10 04:05:23;;;;;;;36.80;33.50;;;5.10;99.90;;;;;;4991456;28;20457;-78
2021/10/10 04:07:50;;;;;;;35.97;32.93;;;5.10;99.90;;;;;;4991073;28;20462;-78
2021/10/10 04:10:19;;;;;;;37.57;34.47;;;5.00;99.90;;;;;;4991230;28;20481;-81
2021/10/10 04:12:46;;;;;;;36.73;33.83;;;5.00;99.90;;;;;;4991200;28;20504;-80
2021/10/10 04:15:13;;;;;;;37.70;34.33;;;4.90;99.90;;;;;;4991275;28;20715;-81
2021/10/10 04:17:40;;;;;;;39.07;35.60;;;4.90;99.90;;;;;;4991198;28;20518;-82
2021/10/10 04:20:08;;;;;;;36.77;33.80;;;4.70;99.90;;;;;;4991236;28;20496;-83
2021/10/10 04:22:35;;;;;;;37.27;33.97;;;4.60;99.90;;;;;;4991289;28;20461;-82
2021/10/10 04:25:02;;;;;;;37.53;34.53;;;4.60;99.90;;;;;;4991119;28;20944;-81
2021/10/10 04:27:32;;;;;;;38.47;35.47;;;4.50;99.90;;;;;;4992620;28;20733;-81
2021/10/10 04:29:58;;;;;;;41.17;37.17;;;4.50;99.90;;;;;;4994820;28;20846;-82
2021/10/10 04:32:25;;;;;;;36.77;33.77;;;4.50;99.90;;;;;;4994819;28;20475;-81
2021/10/10 04:34:52;;;;;;;37.90;34.20;;;4.40;99.90;;;;;;4994871;28;20461;-83
2021/10/10 04:37:18;;;;;;;37.13;33.90;;;4.40;99.90;;;;;;4994946;28;20457;-83
2021/10/10 04:39:45;;;;;;;36.87;33.77;;;4.40;99.90;;;;;;4994571;28;20908;-84
2021/10/10 04:42:12;;;;;;;36.23;33.33;;;4.40;99.90;;;;;;4994455;28;20866;-82
2021/10/10 04:44:40;;;;;;;35.80;33.00;;;4.40;99.90;;;;;;4994681;28;20462;-82
2021/10/10 04:47:07;;;;;;;34.40;31.90;;;4.50;99.90;;;;;;4994780;28;20455;-81
2021/10/10 04:49:34;;;;;;;36.10;33.20;;;4.50;99.90;;;;;;4994446;28;20871;-81
2021/10/10 04:52:02;;;;;;;35.73;32.73;;;4.40;99.90;;;;;;4994480;28;20458;-79
2021/10/10 04:54:29;;;;;;;37.73;34.60;;;4.40;99.90;;;;;;4994300;28;20447;-78
2021/10/10 04:56:55;;;;;;;37.10;33.77;;;4.40;99.90;;;;;;4993894;28;20492;-79
2021/10/10 04:59:22;;;;;;;37.00;34.00;;;4.30;99.90;;;;;;4994387;28;20470;-79
2021/10/10 05:01:50;;;;;;;38.10;35.00;;;4.20;99.90;;;;;;4994363;28;20462;-79
2021/10/10 05:04:17;;;;;;;36.00;32.93;;;4.20;99.90;;;;;;4994285;28;20459;-82
2021/10/10 05:06:43;;;;;;;38.67;35.10;;;4.10;99.90;;;;;;4993980;28;20507;-79
2021/10/10 05:09:10;;;;;;;39.10;35.60;;;4.00;99.90;;;;;;4994185;28;20850;-80
2021/10/10 05:11:37;;;;;;;38.60;35.00;;;4.00;99.90;;;;;;4994075;28;20783;-78
2021/10/10 05:14:04;;;;;;;37.03;34.07;;;4.00;99.90;;;;;;4994424;28;20498;-85
2021/10/10 05:16:30;;;;;;;36.73;33.53;;;4.00;99.90;;;;;;4993668;28;20496;-80
2021/10/10 05:18:58;;;;;;;36.17;33.17;;;3.90;99.90;;;;;;4994081;28;20451;-83
2021/10/10 05:21:25;;;;;;;37.80;34.17;;;3.90;99.90;;;;;;4993911;28;20482;-83
2021/10/10 05:23:52;;;;;;;37.83;34.53;;;3.90;99.90;;;;;;4993849;28;20486;-80
2021/10/10 05:26:18;;;;;;;37.30;34.13;;;4.00;99.90;;;;;;4993756;28;20788;-80
2021/10/10 05:28:45;;;;;;;37.13;33.87;;;4.00;99.90;;;;;;4993912;28;20449;-81
2021/10/10 05:31:12;;;;;;;37.77;34.37;;;3.90;99.90;;;;;;4993702;28;20485;-78
2021/10/10 05:33:38;;;;;;;38.73;35.60;;;3.90;99.90;;;;;;4993684;28;20458;-78
2021/10/10 05:36:06;;;;;;;37.53;34.00;;;3.90;99.90;;;;;;4993661;28;20487;-77
2021/10/10 05:38:34;;;;;;;37.43;34.40;;;3.90;99.90;;;;;;4992984;28;20447;-76
2021/10/10 05:41:01;;;;;;;38.87;35.47;;;3.90;99.90;;;;;;4993427;28;20972;-76
2021/10/10 05:43:28;;;;;;;38.40;34.70;;;4.00;99.90;;;;;;4993488;28;20521;-77
2021/10/10 05:46:00;;;;;;;37.87;34.80;;;3.90;99.90;;;;;;4993356;28;20450;-76
2021/10/10 05:48:26;;;;;;;39.87;36.63;;;3.90;99.90;;;;;;4993375;28;20533;-78
2021/10/10 05:50:53;;;;;;;40.63;36.70;;;4.00;99.90;;;;;;4993425;28;20513;-78
2021/10/10 05:53:21;;;;;;;40.73;36.90;;;4.10;99.90;;;;;;4993589;28;20876;-77
2021/10/10 05:55:48;;;;;;;40.70;37.17;;;4.10;99.90;;;;;;4993226;28;20496;-77
2021/10/10 05:58:20;;;;;;;40.60;37.07;;;4.10;99.90;;;;;;4992871;28;20451;-76
2021/10/10 06:00:47;;;;;;;40.40;36.43;;;4.20;99.90;;;;;;4993304;28;20799;-77
2021/10/10 06:03:14;;;;;;;39.37;35.90;;;4.20;99.90;;;;;;4993278;28;20457;-77
2021/10/10 06:05:40;;;;;;;39.47;35.53;;;4.30;99.90;;;;;;4992712;28;20957;-79
2021/10/10 06:08:07;;;;;;;41.93;37.73;;;4.40;99.90;;;;;;4993108;28;20966;-80
2021/10/10 06:10:36;;;;;;;41.80;38.07;;;4.30;99.90;;;;;;4993152;28;20454;-80
2021/10/10 06:13:03;;;;;;;41.07;37.37;;;4.40;99.90;;;;;;4992968;28;20462;-81
2021/10/10 06:15:30;;;;;;;42.10;38.10;;;4.50;99.90;;;;;;4992818;28;20506;-82
2021/10/10 06:17:57;;;;;;;46.30;41.60;;;4.60;99.90;;;;;;4992606;28;20451;-78
2021/10/10 06:20:24;;;;;;;54.70;45.77;;;5.00;99.90;;;;;;4992887;28;20845;-77
2021/10/10 06:22:50;;;;;;;50.07;44.80;;;5.50;99.90;;;;;;4992918;28;20532;-77
2021/10/10 06:25:17;;;;;;;50.70;45.30;;;6.20;99.90;;;;;;4992724;28;20537;-78
2021/10/10 06:27:45;;;;;;;54.60;47.23;;;6.70;99.90;;;;;;4992738;28;20980;-78
2021/10/10 06:30:12;;;;;;;64.27;44.43;;;6.90;99.90;;;;;;4992564;28;20799;-80
2021/10/10 06:32:39;;;;;;;46.80;41.93;;;7.20;99.90;;;;;;4992603;28;20454;-80
2021/10/10 06:35:07;;;;;;;53.33;42.80;;;7.40;99.90;;;;;;4992839;28;20542;-79
2021/10/10 06:37:34;;;;;;;46.43;40.90;;;7.40;99.90;;;;;;4992740;28;20529;-78
2021/10/10 06:40:00;;;;;;;46.93;42.30;;;7.40;99.90;;;;;;4992759;28;20525;-77
2021/10/10 06:42:27;;;;;;;46.33;42.00;;;7.80;99.90;;;;;;4992818;28;20455;-79
2021/10/10 06:44:55;;;;;;;41.27;37.67;;;8.50;99.90;;;;;;4992303;28;20458;-82
2021/10/10 06:47:22;;;;;;;38.70;35.43;;;9.00;99.90;;;;;;4992542;28;20451;-80
2021/10/10 06:49:48;;;;;;;33.83;31.00;;;9.40;99.90;;;;;;4992433;28;20999;-83
2021/10/10 06:52:15;;;;;;;31.20;28.70;;;9.40;99.90;;;;;;4992633;28;20937;-83
2021/10/10 06:54:42;;;;;;;29.63;26.93;;;9.70;99.90;;;;;;4992125;28;20458;-82
2021/10/10 06:57:09;;;;;;;28.57;26.17;;;9.90;99.90;;;;;;4991773;28;20548;-83
2021/10/10 06:59:36;;;;;;;27.77;25.67;;;10.20;99.90;;;;;;4992460;28;20843;-81
2021/10/10 07:02:04;;;;;;;25.60;24.00;;;10.20;99.90;;;;;;4991980;28;20451;-79
2021/10/10 07:04:31;;;;;;;25.00;23.23;;;10.10;99.90;;;;;;4992096;28;20868;-79
2021/10/10 07:06:57;;;;;;;24.47;21.93;;;10.40;99.90;;;;;;4992033;28;20454;-84
2021/10/10 07:09:24;;;;;;;25.17;23.30;;;10.40;99.90;;;;;;4991735;28;20459;-77
2021/10/10 07:11:51;;;;;;;23.90;22.20;;;10.70;99.90;;;;;;4992162;28;20454;-77
2021/10/10 07:14:17;;;;;;;24.87;22.93;;;11.10;99.90;;;;;;4991993;28;20462;-77
2021/10/10 07:16:44;;;;;;;23.87;22.13;;;11.60;99.90;;;;;;4991903;28;20491;-76
2021/10/10 07:19:20;;;;;;;23.63;21.87;;;12.10;99.90;;;;;;4991923;28;20451;-76
2021/10/10 07:21:56;;;;;;;24.03;22.23;;;12.20;99.90;;;;;;4992000;28;20457;-76
2021/10/10 07:27:07;;;;;;;24.27;22.57;;;12.80;99.90;;;;;;4991932;28;20426;-75
2021/10/10 07:29:34;;;;;;;23.53;21.63;;;13.30;99.90;;;;;;4991707;28;20465;-75
2021/10/10 07:32:00;;;;;;;25.10;22.47;;;13.60;99.90;;;;;;4991512;28;20455;-75
2021/10/10 07:34:28;;;;;;;22.23;20.37;;;14.30;99.90;;;;;;4991726;28;20462;-75
2021/10/10 07:36:55;;;;;;;23.43;21.93;;;14.40;99.90;;;;;;4991472;28;20494;-76
2021/10/10 07:39:22;;;;;;;21.30;19.40;;;14.80;99.90;;;;;;4992021;28;20455;-74
2021/10/10 07:41:49;;;;;;;24.17;22.57;;;15.00;99.90;;;;;;4991496;28;20450;-74
2021/10/10 07:44:16;;;;;;;23.93;21.90;;;15.40;99.90;;;;;;4991341;28;20461;-74
2021/10/10 07:46:43;;;;;;;22.13;20.70;;;15.50;99.90;;;;;;4991319;28;20458;-74
2021/10/10 07:49:11;;;;;;;23.30;21.70;;;15.60;99.70;;;;;;4991762;28;20455;-74
2021/10/10 07:51:39;;;;;;;23.17;21.17;;;15.50;99.20;;;;;;4991699;28;20461;-75
2021/10/10 07:54:06;;;;;;;22.70;21.17;;;15.30;98.10;;;;;;4992307;28;20852;-74
2021/10/10 07:56:34;;;;;;;22.87;21.17;;;15.90;98.20;;;;;;4993095;28;20486;-74
2021/10/10 07:59:00;;;;;;;22.37;20.77;;;16.10;97.10;;;;;;4993061;28;20455;-74
2021/10/10 08:01:27;;;;;;;22.70;21.03;;;16.40;97.00;;;;;;4992359;28;20455;-76
2021/10/10 08:03:54;;;;;;;22.40;20.70;;;17.40;95.00;;;;;;4995433;28;20447;-78
2021/10/10 08:06:20;;;;;;;23.87;22.03;;;17.90;93.80;;;;;;4995722;28;20465;-76
2021/10/10 08:08:48;;;;;;;26.53;23.90;;;18.40;92.40;;;;;;4995130;28;20454;-75
2021/10/10 08:11:15;;;;;;;23.63;22.03;;;18.40;91.20;;;;;;4995154;28;20458;-75
2021/10/10 08:13:41;;;;;;;22.47;20.90;;;18.20;92.40;;;;;;4995346;28;20524;-75
2021/10/10 08:16:08;;;;;;;23.17;21.73;;;18.70;91.30;;;;;;4995245;28;21008;-76
2021/10/10 08:18:35;;;;;;;22.93;21.03;;;18.90;90.50;;;;;;4995354;28;20820;-76
2021/10/10 08:21:01;;;;;;;23.87;22.03;;;19.20;90.00;;;;;;4995278;28;20480;-79
2021/10/10 08:23:29;;;;;;;23.90;22.30;;;20.50;86.50;;;;;;4994717;28;21192;-79
2021/10/10 08:25:57;;;;;;;25.10;23.30;;;20.80;81.70;;;;;;4995101;28;20521;-81
2021/10/10 08:28:25;;;;;;;25.77;24.10;;;21.70;79.80;;;;;;4995440;28;20462;-84
2021/10/10 08:30:51;;;;;;;23.93;22.30;;;22.20;76.50;;;;;;4992909;28;20455;-78
2021/10/10 08:33:18;;;;;;;24.63;22.90;;;22.20;75.60;;;;;;4992952;28;20861;-78
2021/10/10 08:35:45;;;;;;;24.50;22.60;;;21.60;75.70;;;;;;4994295;28;20474;-78
2021/10/10 08:38:11;;;;;;;25.90;23.73;;;21.40;76.10;;;;;;4994915;28;20992;-78
2021/10/10 08:40:38;;;;;;;24.77;23.10;;;21.50;75.40;;;;;;4995656;28;20873;-73
2021/10/10 08:43:08;;;;;;;24.00;22.20;;;21.60;75.30;;;;;;4995020;28;20454;-73
2021/10/10 08:45:36;;;;;;;24.73;22.93;;;21.20;75.60;;;;;;4994880;28;20459;-74
2021/10/10 08:48:03;;;;;;;24.33;22.43;;;20.70;77.00;;;;;;4994917;28;20458;-74
2021/10/10 08:50:31;;;;;;;25.33;23.53;;;21.10;75.80;;;;;;4994826;28;20820;-74
2021/10/10 08:52:59;;;;;;;25.70;23.80;;;19.90;80.40;;;;;;4994701;28;20466;-73
2021/10/10 08:55:28;;;;;;;25.67;23.70;;;20.50;78.30;;;;;;4995217;28;20454;-74
2021/10/10 08:57:55;;;;;;;25.57;23.87;;;21.30;76.10;;;;;;4994626;28;20490;-73
2021/10/10 09:00:26;;;;;;;25.93;24.00;;;21.80;75.00;;;;;;4992604;28;20451;-74
2021/10/10 09:02:53;;;;;;;25.77;23.67;;;22.80;72.50;;;;;;4994321;28;20525;-74
2021/10/10 09:05:20;;;;;;;25.80;24.00;;;22.90;71.10;;;;;;4994133;28;20929;-74
2021/10/10 09:07:48;;;;;;;26.93;24.83;;;23.30;69.50;;;;;;4994089;28;20447;-73
2021/10/10 09:10:21;;;;;;;24.30;22.60;;;22.20;70.80;;;;;;4994140;28;20451;-73
2021/10/10 09:12:48;;;;;;;25.00;23.20;;;23.20;69.80;;;;;;4994186;28;20489;-74
2021/10/10 09:15:18;;;;;;;25.97;24.10;;;22.80;69.30;;;;;;4993188;28;20462;-75
2021/10/10 09:17:56;;;;;;;26.57;24.60;;;23.10;67.80;;;;;;4993959;28;20496;-74
2021/10/10 09:20:32;;;;;;;26.77;24.87;;;22.60;69.00;;;;;;4993937;28;21030;-74
2021/10/10 09:22:59;;;;;;;27.10;25.17;;;23.10;67.90;;;;;;4993903;28;20450;-75
2021/10/10 09:25:26;;;;;;;26.10;24.30;;;23.40;66.80;;;;;;4993334;28;20501;-75
2021/10/10 09:27:53;;;;;;;27.10;25.07;;;23.20;66.20;;;;;;4993351;28;20443;-74
2021/10/10 09:30:23;;;;;;;25.73;23.93;;;23.00;66.40;;;;;;4993794;28;20504;-74
2021/10/10 09:32:54;;;;;;;26.47;24.30;;;23.80;66.10;;;;;;4993929;28;20461;-75
2021/10/10 09:35:29;;;;;;;26.20;24.37;;;23.50;66.20;;;;;;4993589;28;20454;-74
2021/10/10 09:38:09;;;;;;;26.60;24.73;;;23.50;66.40;;;;;;4993628;28;20493;-74
2021/10/10 09:40:41;;;;;;;25.83;23.97;;;23.70;65.30;;;;;;4993353;28;20470;-75
2021/10/10 09:43:07;;;;;;;25.60;23.97;;;23.70;65.10;;;;;;4993791;28;20945;-75
2021/10/10 09:45:41;;;;;;;25.77;24.03;;;23.90;64.80;;;;;;4993328;28;20458;-75
2021/10/10 09:48:08;;;;;;;25.93;23.87;;;24.30;63.30;;;;;;4993305;28;20490;-74
2021/10/10 09:50:38;;;;;;;26.00;24.00;;;24.30;63.50;;;;;;4993447;28;20818;-75
2021/10/10 09:53:07;;;;;;;25.00;23.17;;;24.40;63.50;;;;;;4993514;28;20458;-74
2021/10/10 09:55:35;;;;;;;25.83;24.00;;;24.40;63.70;;;;;;4993181;28;20458;-75
2021/10/10 09:58:02;;;;;;;26.67;24.70;;;24.50;62.30;;;;;;4993396;28;20490;-74
2021/10/10 10:00:32;;;;;;;25.70;23.70;;;23.60;63.30;;;;;;4992955;28;20454;-75
2021/10/10 10:03:06;;;;;;;24.37;22.67;;;23.60;64.20;;;;;;4992960;28;20455;-73
2021/10/10 10:05:34;;;;;;;24.90;23.27;;;24.70;62.60;;;;;;4992970;28;21096;-74
2021/10/10 10:08:02;;;;;;;26.00;24.03;;;24.50;60.80;;;;;;4993279;28;20462;-74
2021/10/10 10:10:31;;;;;;;25.00;23.20;;;22.70;65.20;;;;;;4992736;28;20960;-75
2021/10/10 10:12:59;;;;;;;26.50;24.40;;;23.20;64.60;;;;;;4993022;28;20462;-73
2021/10/10 10:15:27;;;;;;;25.73;23.73;;;23.50;62.60;;;;;;4992644;28;20846;-74
2021/10/10 10:17:55;;;;;;;25.07;23.17;;;22.80;65.50;;;;;;4992725;28;20491;-73
2021/10/10 10:20:23;;;;;;;25.13;23.37;;;23.60;63.90;;;;;;4992616;28;20529;-74
2021/10/10 10:22:52;;;;;;;24.60;22.87;;;24.10;61.80;;;;;;4992904;28;20482;-73
2021/10/10 10:25:21;;;;;;;24.20;22.60;;;24.30;61.00;;;;;;4991901;28;20490;-74
2021/10/10 10:27:49;;;;;;;26.33;24.43;;;24.30;60.30;;;;;;4992942;28;20454;-74
2021/10/10 10:30:17;;;;;;;27.20;25.30;;;24.50;61.20;;;;;;4992725;28;20821;-75
2021/10/10 10:32:46;;;;;;;26.37;24.07;;;24.40;60.30;;;;;;4992800;28;20443;-74
2021/10/10 10:35:14;;;;;;;24.90;23.00;;;24.30;60.50;;;;;;4992604;28;20533;-75
2021/10/10 10:37:56;;;;;;;23.97;22.17;;;24.50;60.80;;;;;;4991938;28;21008;-75
2021/10/10 10:40:32;;;;;;;25.20;23.40;;;25.10;59.80;;;;;;4992304;28;20462;-73
2021/10/10 10:43:01;;;;;;;24.23;22.37;;;25.90;57.20;;;;;;4992416;28;20891;-74
2021/10/10 10:45:29;;;;;;;23.13;21.47;;;25.80;57.20;;;;;;4992228;28;20482;-73
2021/10/10 10:47:57;;;;;;;26.43;24.43;;;25.70;57.80;;;;;;4992025;28;20446;-74
2021/10/10 10:50:26;;;;;;;26.40;24.37;;;25.20;58.80;;;;;;4992218;28;20455;-73
2021/10/10 10:52:58;;;;;;;26.10;24.33;;;26.10;56.60;;;;;;4992057;28;20833;-74
2021/10/10 10:55:26;;;;;;;26.43;24.33;;;26.00;56.00;;;;;;4991590;28;20491;-74
2021/10/10 10:57:55;;;;;;;24.77;23.17;;;26.10;56.80;;;;;;4992073;28;20483;-73
2021/10/10 11:00:27;;;;;;;26.07;24.00;;;25.60;56.50;;;;;;4991806;28;20451;-73
2021/10/10 11:03:01;;;;;;;24.23;22.40;;;25.10;56.40;;;;;;4991874;28;20482;-74
2021/10/10 11:05:37;;;;;;;23.40;22.00;;;25.40;57.00;;;;;;4992772;28;21176;-74
2021/10/10 11:08:06;;;;;;;25.60;23.77;;;25.60;57.00;;;;;;4990876;28;20474;-73
2021/10/10 11:10:34;;;;;;;23.23;21.87;;;25.60;56.40;;;;;;4991845;28;20466;-74
2021/10/10 11:13:27;;;;;;;24.43;22.47;;;25.70;56.60;;;;;;4991650;28;20450;-73
2021/10/10 11:15:57;;;;;;;23.20;21.60;;;26.30;55.70;;;;;;4992073;28;20451;-74
2021/10/10 11:18:26;;;;;;;23.70;22.00;;;26.90;54.30;;;;;;4991656;28;20537;-74
2021/10/10 11:20:57;;;;;;;25.73;23.57;;;27.10;53.30;;;;;;4991374;28;20475;-73
2021/10/10 11:23:24;;;;;;;24.10;22.40;;;26.10;53.80;;;;;;4991469;28;20482;-73
2021/10/10 11:25:52;;;;;;;23.27;21.57;;;24.50;57.20;;;;;;4991699;28;20447;-74
2021/10/10 11:28:20;;;;;;;24.50;22.90;;;24.90;56.50;;;;;;4991758;28;20884;-74
2021/10/10 11:30:48;;;;;;;24.30;22.40;;;24.70;56.50;;;;;;4991775;28;20451;-73
2021/10/10 11:33:16;;;;;;;23.90;21.80;;;25.00;55.20;;;;;;4991339;28;20867;-74
2021/10/10 11:35:44;;;;;;;23.00;21.50;;;25.90;54.40;;;;;;4991436;28;20471;-75
2021/10/10 11:38:12;;;;;;;22.00;20.60;;;26.70;52.90;;;;;;4990781;28;20905;-73
2021/10/10 11:40:57;;;;;;;23.20;21.70;;;27.40;51.40;;;;;;4991592;28;20482;-75
2021/10/10 11:43:24;;;;;;;21.90;20.50;;;27.80;50.30;;;;;;4991385;28;20525;-74
2021/10/10 11:45:58;;;;;;;23.17;21.67;;;27.70;50.40;;;;;;4991351;28;20945;-74
2021/10/10 11:48:35;;;;;;;22.50;20.77;;;26.30;51.30;;;;;;4991296;28;20459;-73
2021/10/10 11:51:02;;;;;;;21.37;19.70;;;23.30;55.70;;;;;;4991229;28;20450;-73
2021/10/10 11:53:43;;;;;;;22.90;21.40;;;23.30;56.70;;;;;;4991168;28;20458;-73
2021/10/10 11:56:09;;;;;;;23.10;21.17;;;24.60;54.90;;;;;;4991305;28;20458;-74
2021/10/10 11:58:36;;;;;;;22.17;20.60;;;25.60;53.10;;;;;;4991023;28;20954;-74
2021/10/10 12:01:12;;;;;;;22.73;21.03;;;26.10;51.80;;;;;;4991286;28;20447;-74
2021/10/10 12:03:46;;;;;;;19.93;18.60;;;26.20;51.50;;;;;;4991587;28;20465;-75
2021/10/10 12:06:18;;;;;;;21.83;20.43;;;26.60;51.00;;;;;;4991349;28;21041;-74
2021/10/10 12:08:45;;;;;;;22.00;20.53;;;27.30;49.50;;;;;;4991099;28;20971;-74
2021/10/10 12:11:11;;;;;;;21.83;20.43;;;28.60;48.10;;;;;;4991400;28;20454;-74
2021/10/10 12:13:53;;;;;;;21.37;20.07;;;29.00;45.20;;;;;;4991065;28;20970;-75
2021/10/10 12:16:21;;;;;;;21.23;19.83;;;27.80;46.30;;;;;;4991214;28;20482;-75
2021/10/10 12:18:48;;;;;;;20.17;18.97;;;25.50;49.30;;;;;;4990909;28;20542;-75
2021/10/10 12:21:19;;;;;;;18.90;17.80;;;25.60;49.60;;;;;;4990802;28;20470;-75
2021/10/10 12:23:46;;;;;;;20.77;19.47;;;25.20;50.50;;;;;;4990768;28;20486;-75
2021/10/10 12:26:13;;;;;;;21.17;19.53;;;25.30;50.60;;;;;;4990902;28;20442;-75
2021/10/10 12:28:40;;;;;;;21.70;20.30;;;25.80;50.00;;;;;;4990805;28;20844;-75
2021/10/10 12:31:07;;;;;;;19.40;17.90;;;25.80;48.50;;;;;;4991044;28;20459;-74
2021/10/10 12:33:38;;;;;;;20.20;18.70;;;26.00;48.80;;;;;;4991207;28;20549;-75
2021/10/10 12:36:11;;;;;;;21.63;20.03;;;25.60;50.40;;;;;;4990925;28;20967;-75
2021/10/10 12:38:43;;;;;;;20.93;19.43;;;25.00;50.30;;;;;;4990940;28;20493;-74
2021/10/10 12:41:26;;;;;;;20.17;18.90;;;24.20;51.30;;;;;;4990604;28;20466;-74
2021/10/10 12:43:55;;;;;;;22.40;20.73;;;23.60;52.90;;;;;;4990653;28;20454;-74